sensor_id;sensor_type;location;lat;lon;timestamp;temperature;humidity
38606;DHT22;24365;48.446;8.850;2023-10-31T00:02:35;11.00;85.30
38606;DHT22;24365;48.446;8.850;2023-10-31T00:07:36;11.00;86.10
38606;DHT22;24365;48.446;8.850;2023-10-31T00:12:37;11.00;85.70
38606;DHT22;24365;48.446;8.850;2023-10-31T00:17:40;11.00;86.20
38606;DHT22;24365;48.446;8.850;2023-10-31T00:22:41;11.00;86.60
38606;DHT22;24365;48.446;8.850;2023-10-31T00:27:42;11.00;85.90
38606;DHT22;24365;48.446;8.850;2023-10-31T00:32:43;11.00;85.50
38606;DHT22;24365;48.446;8.850;2023-10-31T00:37:44;11.10;85.90
38606;DHT22;24365;48.446;8.850;2023-10-31T00:42:46;11.00;86.10
38606;DHT22;24365;48.446;8.850;2023-10-31T00:47:49;11.10;86.10
38606;DHT22;24365;48.446;8.850;2023-10-31T00:52:49;11.10;85.00
38606;DHT22;24365;48.446;8.850;2023-10-31T00:57:50;11.10;84.30
38606;DHT22;24365;48.446;8.850;2023-10-31T01:02:51;11.10;84.50
38606;DHT22;24365;48.446;8.850;2023-10-31T01:07:52;11.00;84.70
38606;DHT22;24365;48.446;8.850;2023-10-31T01:12:53;11.00;83.60
38606;DHT22;24365;48.446;8.850;2023-10-31T01:17:54;10.90;84.40
38606;DHT22;24365;48.446;8.850;2023-10-31T01:22:55;10.90;84.20
38606;DHT22;24365;48.446;8.850;2023-10-31T01:27:56;10.80;84.50
38606;DHT22;24365;48.446;8.850;2023-10-31T01:32:58;10.70;85.50
38606;DHT22;24365;48.446;8.850;2023-10-31T01:38:00;10.60;85.70
38606;DHT22;24365;48.446;8.850;2023-10-31T01:43:01;10.60;86.30
38606;DHT22;24365;48.446;8.850;2023-10-31T01:48:02;10.70;85.70
38606;DHT22;24365;48.446;8.850;2023-10-31T01:53:03;10.70;85.00
38606;DHT22;24365;48.446;8.850;2023-10-31T01:58:05;10.60;85.80
38606;DHT22;24365;48.446;8.850;2023-10-31T02:03:07;10.60;85.70
38606;DHT22;24365;48.446;8.850;2023-10-31T02:08:08;10.60;86.00
38606;DHT22;24365;48.446;8.850;2023-10-31T02:13:13;10.70;85.50
38606;DHT22;24365;48.446;8.850;2023-10-31T02:18:14;10.60;85.90
38606;DHT22;24365;48.446;8.850;2023-10-31T02:23:16;10.60;85.70
38606;DHT22;24365;48.446;8.850;2023-10-31T02:28:17;10.60;85.30
38606;DHT22;24365;48.446;8.850;2023-10-31T02:33:19;10.60;85.40
38606;DHT22;24365;48.446;8.850;2023-10-31T02:38:20;10.60;85.50
38606;DHT22;24365;48.446;8.850;2023-10-31T02:43:21;10.60;84.00
38606;DHT22;24365;48.446;8.850;2023-10-31T02:48:23;10.60;84.40
38606;DHT22;24365;48.446;8.850;2023-10-31T02:53:26;10.60;84.80
38606;DHT22;24365;48.446;8.850;2023-10-31T02:58:27;10.50;84.80
38606;DHT22;24365;48.446;8.850;2023-10-31T03:03:28;10.50;84.70
38606;DHT22;24365;48.446;8.850;2023-10-31T03:08:32;10.50;85.50
38606;DHT22;24365;48.446;8.850;2023-10-31T03:13:33;10.40;86.10
38606;DHT22;24365;48.446;8.850;2023-10-31T03:18:34;10.50;86.20
38606;DHT22;24365;48.446;8.850;2023-10-31T03:23:36;10.50;85.60
38606;DHT22;24365;48.446;8.850;2023-10-31T03:28:37;10.40;86.20
38606;DHT22;24365;48.446;8.850;2023-10-31T03:33:49;10.40;86.10
38606;DHT22;24365;48.446;8.850;2023-10-31T03:38:56;10.40;85.50
38606;DHT22;24365;48.446;8.850;2023-10-31T03:43:57;10.30;84.40
38606;DHT22;24365;48.446;8.850;2023-10-31T03:48:58;10.20;85.00
38606;DHT22;24365;48.446;8.850;2023-10-31T03:53:59;10.20;85.10
38606;DHT22;24365;48.446;8.850;2023-10-31T03:59:01;10.20;85.40
38606;DHT22;24365;48.446;8.850;2023-10-31T04:04:02;10.10;86.00
38606;DHT22;24365;48.446;8.850;2023-10-31T04:09:03;10.20;85.90
38606;DHT22;24365;48.446;8.850;2023-10-31T04:14:05;10.20;86.00
38606;DHT22;24365;48.446;8.850;2023-10-31T04:19:06;10.20;85.60
38606;DHT22;24365;48.446;8.850;2023-10-31T04:24:07;10.30;85.60
38606;DHT22;24365;48.446;8.850;2023-10-31T04:29:09;10.30;85.50
38606;DHT22;24365;48.446;8.850;2023-10-31T04:34:10;10.30;85.10
38606;DHT22;24365;48.446;8.850;2023-10-31T04:39:11;10.20;84.80
38606;DHT22;24365;48.446;8.850;2023-10-31T04:44:12;10.20;84.90
38606;DHT22;24365;48.446;8.850;2023-10-31T04:49:13;10.10;83.80
38606;DHT22;24365;48.446;8.850;2023-10-31T04:54:13;10.00;84.40
38606;DHT22;24365;48.446;8.850;2023-10-31T04:59:15;10.00;83.40
38606;DHT22;24365;48.446;8.850;2023-10-31T05:04:16;10.00;83.80
38606;DHT22;24365;48.446;8.850;2023-10-31T05:09:17;10.00;83.70
38606;DHT22;24365;48.446;8.850;2023-10-31T05:14:20;9.90;83.30
38606;DHT22;24365;48.446;8.850;2023-10-31T05:19:21;9.80;84.00
38606;DHT22;24365;48.446;8.850;2023-10-31T05:24:22;9.90;83.30
38606;DHT22;24365;48.446;8.850;2023-10-31T05:29:23;9.80;83.20
38606;DHT22;24365;48.446;8.850;2023-10-31T05:34:24;9.80;83.40
38606;DHT22;24365;48.446;8.850;2023-10-31T05:39:25;9.80;82.80
38606;DHT22;24365;48.446;8.850;2023-10-31T05:44:27;9.70;83.90
38606;DHT22;24365;48.446;8.850;2023-10-31T05:49:28;9.60;83.80
38606;DHT22;24365;48.446;8.850;2023-10-31T05:54:29;9.60;84.80
38606;DHT22;24365;48.446;8.850;2023-10-31T05:59:30;9.60;84.50
38606;DHT22;24365;48.446;8.850;2023-10-31T06:04:31;9.50;83.00
38606;DHT22;24365;48.446;8.850;2023-10-31T06:09:33;9.50;84.10
38606;DHT22;24365;48.446;8.850;2023-10-31T06:14:35;9.50;83.10
38606;DHT22;24365;48.446;8.850;2023-10-31T06:19:36;9.40;84.40
38606;DHT22;24365;48.446;8.850;2023-10-31T06:24:37;9.40;83.40
38606;DHT22;24365;48.446;8.850;2023-10-31T06:29:38;9.40;84.30
38606;DHT22;24365;48.446;8.850;2023-10-31T06:34:39;9.30;83.90
38606;DHT22;24365;48.446;8.850;2023-10-31T06:39:40;9.40;84.50
38606;DHT22;24365;48.446;8.850;2023-10-31T06:44:41;9.40;83.60
38606;DHT22;24365;48.446;8.850;2023-10-31T06:49:42;9.40;84.00
38606;DHT22;24365;48.446;8.850;2023-10-31T06:54:43;9.50;84.00
38606;DHT22;24365;48.446;8.850;2023-10-31T06:59:44;9.50;83.40
38606;DHT22;24365;48.446;8.850;2023-10-31T07:04:45;9.60;84.20
38606;DHT22;24365;48.446;8.850;2023-10-31T07:09:46;9.60;83.60
38606;DHT22;24365;48.446;8.850;2023-10-31T07:14:47;9.60;83.60
38606;DHT22;24365;48.446;8.850;2023-10-31T07:19:48;9.60;83.70
38606;DHT22;24365;48.446;8.850;2023-10-31T07:24:49;9.60;82.80
38606;DHT22;24365;48.446;8.850;2023-10-31T07:29:50;9.60;82.90
38606;DHT22;24365;48.446;8.850;2023-10-31T07:34:51;9.60;82.50
38606;DHT22;24365;48.446;8.850;2023-10-31T07:39:53;9.60;82.10
38606;DHT22;24365;48.446;8.850;2023-10-31T07:44:54;9.60;81.70
38606;DHT22;24365;48.446;8.850;2023-10-31T07:49:55;9.60;82.40
38606;DHT22;24365;48.446;8.850;2023-10-31T07:54:56;9.70;81.40
38606;DHT22;24365;48.446;8.850;2023-10-31T07:59:57;9.70;80.80
38606;DHT22;24365;48.446;8.850;2023-10-31T08:04:58;9.70;80.90
38606;DHT22;24365;48.446;8.850;2023-10-31T08:09:59;9.80;81.50
38606;DHT22;24365;48.446;8.850;2023-10-31T08:15:02;9.80;81.00
38606;DHT22;24365;48.446;8.850;2023-10-31T08:20:03;9.90;81.80
38606;DHT22;24365;48.446;8.850;2023-10-31T08:25:04;10.00;81.00
38606;DHT22;24365;48.446;8.850;2023-10-31T08:30:06;10.10;80.40
38606;DHT22;24365;48.446;8.850;2023-10-31T08:35:07;10.30;82.00
38606;DHT22;24365;48.446;8.850;2023-10-31T08:40:09;10.40;80.30
38606;DHT22;24365;48.446;8.850;2023-10-31T08:45:10;10.40;80.00
38606;DHT22;24365;48.446;8.850;2023-10-31T08:50:11;10.50;79.70
38606;DHT22;24365;48.446;8.850;2023-10-31T08:55:13;10.70;81.10
38606;DHT22;24365;48.446;8.850;2023-10-31T09:00:14;10.70;78.90
38606;DHT22;24365;48.446;8.850;2023-10-31T09:05:15;10.80;78.50
38606;DHT22;24365;48.446;8.850;2023-10-31T09:10:19;10.80;78.20
38606;DHT22;24365;48.446;8.850;2023-10-31T09:15:21;10.90;77.30
38606;DHT22;24365;48.446;8.850;2023-10-31T09:26:57;11.00;76.80
38606;DHT22;24365;48.446;8.850;2023-10-31T09:31:59;11.00;76.50
38606;DHT22;24365;48.446;8.850;2023-10-31T09:37:01;11.10;76.20
38606;DHT22;24365;48.446;8.850;2023-10-31T09:42:03;11.30;76.80
38606;DHT22;24365;48.446;8.850;2023-10-31T09:47:06;11.40;76.00
38606;DHT22;24365;48.446;8.850;2023-10-31T09:52:09;11.40;76.70
38606;DHT22;24365;48.446;8.850;2023-10-31T09:57:11;11.50;76.30
38606;DHT22;24365;48.446;8.850;2023-10-31T10:02:12;11.50;75.70
38606;DHT22;24365;48.446;8.850;2023-10-31T10:07:16;11.40;75.00
38606;DHT22;24365;48.446;8.850;2023-10-31T10:12:18;11.50;74.80
38606;DHT22;24365;48.446;8.850;2023-10-31T10:23:23;11.80;74.00
38606;DHT22;24365;48.446;8.850;2023-10-31T10:28:25;11.90;73.70
38606;DHT22;24365;48.446;8.850;2023-10-31T10:33:27;12.10;73.60
38606;DHT22;24365;48.446;8.850;2023-10-31T10:38:29;12.30;71.30
38606;DHT22;24365;48.446;8.850;2023-10-31T10:43:37;12.30;71.70
38606;DHT22;24365;48.446;8.850;2023-10-31T10:48:42;12.20;70.70
38606;DHT22;24365;48.446;8.850;2023-10-31T10:53:51;12.30;71.50
38606;DHT22;24365;48.446;8.850;2023-10-31T10:59:01;12.50;70.80
38606;DHT22;24365;48.446;8.850;2023-10-31T11:04:05;12.70;69.60
38606;DHT22;24365;48.446;8.850;2023-10-31T11:09:09;12.70;68.20
38606;DHT22;24365;48.446;8.850;2023-10-31T11:14:11;12.60;68.80
38606;DHT22;24365;48.446;8.850;2023-10-31T11:19:13;12.60;68.40
38606;DHT22;24365;48.446;8.850;2023-10-31T11:24:15;12.50;68.90
38606;DHT22;24365;48.446;8.850;2023-10-31T11:29:16;12.50;68.50
38606;DHT22;24365;48.446;8.850;2023-10-31T11:34:19;12.50;68.40
38606;DHT22;24365;48.446;8.850;2023-10-31T11:39:21;12.60;67.70
38606;DHT22;24365;48.446;8.850;2023-10-31T11:44:26;12.70;67.60
38606;DHT22;24365;48.446;8.850;2023-10-31T11:49:46;12.80;66.70
38606;DHT22;24365;48.446;8.850;2023-10-31T11:54:48;13.00;66.40
38606;DHT22;24365;48.446;8.850;2023-10-31T11:59:49;13.10;64.50
38606;DHT22;24365;48.446;8.850;2023-10-31T12:04:50;13.30;64.70
38606;DHT22;24365;48.446;8.850;2023-10-31T12:09:55;13.60;63.50
38606;DHT22;24365;48.446;8.850;2023-10-31T12:15:07;13.60;62.10
38606;DHT22;24365;48.446;8.850;2023-10-31T12:20:10;13.70;61.60
38606;DHT22;24365;48.446;8.850;2023-10-31T12:25:11;13.70;61.60
38606;DHT22;24365;48.446;8.850;2023-10-31T12:30:13;13.70;59.80
38606;DHT22;24365;48.446;8.850;2023-10-31T12:35:20;13.60;61.50
38606;DHT22;24365;48.446;8.850;2023-10-31T12:40:22;13.40;60.90
38606;DHT22;24365;48.446;8.850;2023-10-31T12:45:24;13.60;61.20
38606;DHT22;24365;48.446;8.850;2023-10-31T12:50:25;13.70;59.40
38606;DHT22;24365;48.446;8.850;2023-10-31T12:55:27;13.60;60.90
38606;DHT22;24365;48.446;8.850;2023-10-31T13:00:33;13.60;60.10
38606;DHT22;24365;48.446;8.850;2023-10-31T13:05:35;13.60;60.00
38606;DHT22;24365;48.446;8.850;2023-10-31T13:10:36;13.50;59.20
38606;DHT22;24365;48.446;8.850;2023-10-31T13:15:38;13.60;58.60
38606;DHT22;24365;48.446;8.850;2023-10-31T13:20:39;13.80;58.40
38606;DHT22;24365;48.446;8.850;2023-10-31T13:25:40;13.90;58.40
38606;DHT22;24365;48.446;8.850;2023-10-31T13:30:42;13.70;59.00
38606;DHT22;24365;48.446;8.850;2023-10-31T13:35:43;13.70;58.90
38606;DHT22;24365;48.446;8.850;2023-10-31T13:40:44;13.60;59.40
38606;DHT22;24365;48.446;8.850;2023-10-31T13:45:45;13.50;59.60
38606;DHT22;24365;48.446;8.850;2023-10-31T13:50:46;13.30;60.00
38606;DHT22;24365;48.446;8.850;2023-10-31T13:55:47;13.10;60.80
38606;DHT22;24365;48.446;8.850;2023-10-31T14:00:48;12.90;63.50
38606;DHT22;24365;48.446;8.850;2023-10-31T14:05:49;12.80;64.80
38606;DHT22;24365;48.446;8.850;2023-10-31T14:10:50;12.60;66.60
38606;DHT22;24365;48.446;8.850;2023-10-31T14:15:54;12.50;69.20
38606;DHT22;24365;48.446;8.850;2023-10-31T14:20:55;12.40;70.10
38606;DHT22;24365;48.446;8.850;2023-10-31T14:25:56;12.40;72.20
38606;DHT22;24365;48.446;8.850;2023-10-31T14:30:57;12.30;73.70
38606;DHT22;24365;48.446;8.850;2023-10-31T14:35:59;12.10;75.20
38606;DHT22;24365;48.446;8.850;2023-10-31T14:41:00;12.00;75.40
38606;DHT22;24365;48.446;8.850;2023-10-31T14:46:01;11.90;76.30
38606;DHT22;24365;48.446;8.850;2023-10-31T14:51:03;11.80;77.20
38606;DHT22;24365;48.446;8.850;2023-10-31T14:56:04;11.80;77.80
38606;DHT22;24365;48.446;8.850;2023-10-31T15:01:06;11.90;78.10
38606;DHT22;24365;48.446;8.850;2023-10-31T15:06:07;11.90;77.90
38606;DHT22;24365;48.446;8.850;2023-10-31T15:11:08;11.80;78.00
38606;DHT22;24365;48.446;8.850;2023-10-31T15:16:09;11.80;78.20
38606;DHT22;24365;48.446;8.850;2023-10-31T15:21:12;11.80;77.90
38606;DHT22;24365;48.446;8.850;2023-10-31T15:26:13;11.70;76.90
38606;DHT22;24365;48.446;8.850;2023-10-31T15:31:14;11.60;77.90
38606;DHT22;24365;48.446;8.850;2023-10-31T15:36:15;11.50;78.40
38606;DHT22;24365;48.446;8.850;2023-10-31T15:47:52;11.50;78.80
38606;DHT22;24365;48.446;8.850;2023-10-31T15:52:53;11.50;79.60
38606;DHT22;24365;48.446;8.850;2023-10-31T15:57:56;11.40;79.60
38606;DHT22;24365;48.446;8.850;2023-10-31T16:02:58;11.40;80.10
38606;DHT22;24365;48.446;8.850;2023-10-31T16:08:02;11.40;79.30
38606;DHT22;24365;48.446;8.850;2023-10-31T16:13:04;11.40;79.10
38606;DHT22;24365;48.446;8.850;2023-10-31T16:18:07;11.40;79.30
38606;DHT22;24365;48.446;8.850;2023-10-31T16:23:09;11.30;79.70
38606;DHT22;24365;48.446;8.850;2023-10-31T16:28:11;11.20;80.00
38606;DHT22;24365;48.446;8.850;2023-10-31T16:33:13;11.30;79.90
38606;DHT22;24365;48.446;8.850;2023-10-31T16:38:16;11.30;80.30
38606;DHT22;24365;48.446;8.850;2023-10-31T16:43:17;11.20;79.80
38606;DHT22;24365;48.446;8.850;2023-10-31T16:48:18;11.20;79.20
38606;DHT22;24365;48.446;8.850;2023-10-31T16:53:19;11.10;79.80
38606;DHT22;24365;48.446;8.850;2023-10-31T16:58:21;11.00;80.00
38606;DHT22;24365;48.446;8.850;2023-10-31T17:03:22;11.00;80.40
38606;DHT22;24365;48.446;8.850;2023-10-31T17:08:23;11.00;80.50
38606;DHT22;24365;48.446;8.850;2023-10-31T17:13:24;11.00;80.00
38606;DHT22;24365;48.446;8.850;2023-10-31T17:18:27;11.00;80.40
38606;DHT22;24365;48.446;8.850;2023-10-31T17:23:28;11.00;79.80
38606;DHT22;24365;48.446;8.850;2023-10-31T17:28:31;10.90;80.20
38606;DHT22;24365;48.446;8.850;2023-10-31T17:33:39;10.90;80.40
38606;DHT22;24365;48.446;8.850;2023-10-31T17:38:47;10.90;80.30
38606;DHT22;24365;48.446;8.850;2023-10-31T17:43:48;10.90;80.00
38606;DHT22;24365;48.446;8.850;2023-10-31T17:48:49;11.00;80.00
38606;DHT22;24365;48.446;8.850;2023-10-31T17:53:51;10.90;80.20
38606;DHT22;24365;48.446;8.850;2023-10-31T17:58:54;10.90;79.70
38606;DHT22;24365;48.446;8.850;2023-10-31T18:03:56;10.80;80.50
38606;DHT22;24365;48.446;8.850;2023-10-31T18:08:57;10.80;80.30
38606;DHT22;24365;48.446;8.850;2023-10-31T18:13:58;10.80;80.30
38606;DHT22;24365;48.446;8.850;2023-10-31T18:19:00;10.70;80.40
38606;DHT22;24365;48.446;8.850;2023-10-31T18:24:01;10.70;81.50
38606;DHT22;24365;48.446;8.850;2023-10-31T18:29:01;10.60;81.40
38606;DHT22;24365;48.446;8.850;2023-10-31T18:34:03;10.50;81.70
38606;DHT22;24365;48.446;8.850;2023-10-31T18:39:05;10.40;82.00
38606;DHT22;24365;48.446;8.850;2023-10-31T18:44:06;10.30;82.60
38606;DHT22;24365;48.446;8.850;2023-10-31T18:49:09;10.30;82.40
38606;DHT22;24365;48.446;8.850;2023-10-31T18:54:11;10.30;83.10
38606;DHT22;24365;48.446;8.850;2023-10-31T18:59:12;10.30;83.40
38606;DHT22;24365;48.446;8.850;2023-10-31T19:04:13;10.30;83.00
38606;DHT22;24365;48.446;8.850;2023-10-31T19:09:19;10.30;83.40
38606;DHT22;24365;48.446;8.850;2023-10-31T19:14:20;10.20;83.50
38606;DHT22;24365;48.446;8.850;2023-10-31T19:19:21;10.10;83.90
38606;DHT22;24365;48.446;8.850;2023-10-31T19:24:22;10.20;83.70
38606;DHT22;24365;48.446;8.850;2023-10-31T19:29:23;10.10;83.50
38606;DHT22;24365;48.446;8.850;2023-10-31T19:34:24;10.10;83.60
38606;DHT22;24365;48.446;8.850;2023-10-31T19:39:25;10.10;83.90
38606;DHT22;24365;48.446;8.850;2023-10-31T19:44:30;10.10;83.70
38606;DHT22;24365;48.446;8.850;2023-10-31T19:49:31;10.10;83.80
38606;DHT22;24365;48.446;8.850;2023-10-31T19:54:32;10.10;83.50
38606;DHT22;24365;48.446;8.850;2023-10-31T19:59:38;10.10;83.30
38606;DHT22;24365;48.446;8.850;2023-10-31T20:04:39;10.20;83.10
38606;DHT22;24365;48.446;8.850;2023-10-31T20:09:40;10.20;82.60
38606;DHT22;24365;48.446;8.850;2023-10-31T20:14:41;10.10;82.10
38606;DHT22;24365;48.446;8.850;2023-10-31T20:19:42;10.00;82.20
38606;DHT22;24365;48.446;8.850;2023-10-31T20:24:43;10.00;81.90
38606;DHT22;24365;48.446;8.850;2023-10-31T20:29:45;10.00;81.90
38606;DHT22;24365;48.446;8.850;2023-10-31T20:34:46;9.80;81.50
38606;DHT22;24365;48.446;8.850;2023-10-31T20:39:47;9.70;82.70
38606;DHT22;24365;48.446;8.850;2023-10-31T20:44:49;9.60;82.40
38606;DHT22;24365;48.446;8.850;2023-10-31T20:49:50;9.50;82.90
38606;DHT22;24365;48.446;8.850;2023-10-31T20:54:53;9.40;83.30
38606;DHT22;24365;48.446;8.850;2023-10-31T20:59:54;9.40;83.00
38606;DHT22;24365;48.446;8.850;2023-10-31T21:04:56;9.40;83.20
38606;DHT22;24365;48.446;8.850;2023-10-31T21:09:57;9.30;83.10
38606;DHT22;24365;48.446;8.850;2023-10-31T21:14:58;9.20;83.90
38606;DHT22;24365;48.446;8.850;2023-10-31T21:19:59;9.20;83.60
38606;DHT22;24365;48.446;8.850;2023-10-31T21:25:00;9.10;83.90
38606;DHT22;24365;48.446;8.850;2023-10-31T21:30:01;9.10;84.50
38606;DHT22;24365;48.446;8.850;2023-10-31T21:35:03;9.10;83.70
38606;DHT22;24365;48.446;8.850;2023-10-31T21:40:09;9.10;83.70
38606;DHT22;24365;48.446;8.850;2023-10-31T21:45:10;9.00;84.70
38606;DHT22;24365;48.446;8.850;2023-10-31T21:50:11;9.00;83.90
38606;DHT22;24365;48.446;8.850;2023-10-31T21:55:12;8.90;84.10
38606;DHT22;24365;48.446;8.850;2023-10-31T22:00:13;8.90;83.60
38606;DHT22;24365;48.446;8.850;2023-10-31T22:05:14;8.90;84.00
38606;DHT22;24365;48.446;8.850;2023-10-31T22:10:15;9.00;83.70
38606;DHT22;24365;48.446;8.850;2023-10-31T22:15:16;8.90;83.60
38606;DHT22;24365;48.446;8.850;2023-10-31T22:20:17;9.00;83.40
38606;DHT22;24365;48.446;8.850;2023-10-31T22:25:18;8.90;83.20
38606;DHT22;24365;48.446;8.850;2023-10-31T22:30:19;8.90;83.40
38606;DHT22;24365;48.446;8.850;2023-10-31T22:35:23;8.90;83.40
38606;DHT22;24365;48.446;8.850;2023-10-31T22:40:23;8.80;83.70
38606;DHT22;24365;48.446;8.850;2023-10-31T22:45:24;8.80;84.60
38606;DHT22;24365;48.446;8.850;2023-10-31T22:50:25;8.90;83.80
38606;DHT22;24365;48.446;8.850;2023-10-31T22:55:26;8.80;84.30
38606;DHT22;24365;48.446;8.850;2023-10-31T23:00:30;8.80;84.30
38606;DHT22;24365;48.446;8.850;2023-10-31T23:05:34;8.90;83.70
38606;DHT22;24365;48.446;8.850;2023-10-31T23:10:36;8.90;83.60
38606;DHT22;24365;48.446;8.850;2023-10-31T23:15:37;8.90;83.60
38606;DHT22;24365;48.446;8.850;2023-10-31T23:20:41;8.80;83.60
38606;DHT22;24365;48.446;8.850;2023-10-31T23:25:42;8.80;83.80
38606;DHT22;24365;48.446;8.850;2023-10-31T23:30:47;8.80;83.60
38606;DHT22;24365;48.446;8.850;2023-10-31T23:35:48;8.80;83.70
38606;DHT22;24365;48.446;8.850;2023-10-31T23:40:49;8.80;83.00
38606;DHT22;24365;48.446;8.850;2023-10-31T23:45:50;8.70;84.50
38606;DHT22;24365;48.446;8.850;2023-10-31T23:50:51;8.70;84.20
38606;DHT22;24365;48.446;8.850;2023-10-31T23:55:52;8.70;86.00
